Time;durP1;ratioP1;P1;durP2;ratioP2;P2;SDS_P1;SDS_P2;PMS_P1;PMS_P2;Temp;Humidity;BMP_temperature;BMP_pressure;BME280_temperature;BME280_humidity;BME280_pressure;Samples;Min_cycle;Max_cycle;Signal;HPM_P1;HPM_P2
2022/04/22 00:02:56;;;;;;;8.02;6.47;;;;;;;9.02;69.84;99878.53;4982301;28;20513;-68
2022/04/22 00:06:01;;;;;;;9.73;6.85;;;;;;;9.13;69.13;99870.09;4651237;28;10000346;-68
2022/04/22 00:09:05;;;;;;;8.60;6.95;;;;;;;9.13;68.98;99867.50;4990237;28;20414;-67
2022/04/22 00:12:11;;;;;;;;;;;;;;;9.05;69.45;99863.53;4984863;28;20053;-67
2022/04/22 00:15:17;;;;;;;10.07;6.97;;;;;;;9.15;68.72;99855.19;4978426;28;20300;-67
2022/04/22 00:18:29;;;;;;;11.60;7.50;;;;;;;8.67;70.39;99854.41;4986247;28;20123;-66
2022/04/22 00:21:37;;;;;;;10.68;7.53;;;;;;;8.48;71.81;99844.97;4978256;28;20529;-68
2022/04/22 00:24:49;;;;;;;12.00;7.28;;;;;;;8.59;71.23;99853.06;4989462;28;20128;-68
2022/04/22 00:27:56;;;;;;;13.40;7.50;;;;;;;8.60;70.93;99840.88;4989273;28;20073;-68
2022/04/22 00:31:03;;;;;;;13.57;8.63;;;;;;;8.36;71.88;99843.03;4976762;28;20509;-68
2022/04/22 00:34:13;;;;;;;11.10;9.35;;;;;;;8.33;71.38;99840.59;4983829;28;20193;-68
2022/04/22 00:37:19;;;;;;;12.02;8.20;;;;;;;8.18;72.55;99836.22;4975514;28;20176;-68
2022/04/22 00:40:33;;;;;;;12.65;8.07;;;;;;;8.08;72.59;99831.47;4983601;28;20108;-68
2022/04/22 00:43:45;;;;;;;11.00;7.53;;;;;;;8.24;72.18;99833.28;4969786;28;20221;-68
2022/04/22 00:46:54;;;;;;;12.57;8.93;;;;;;;8.36;71.34;99835.22;4967140;28;20056;-68
2022/04/22 00:50:01;;;;;;;12.52;8.27;;;;;;;8.21;71.30;99833.44;4984608;28;20088;-68
2022/04/22 00:53:05;;;;;;;;;;;;;;;8.29;71.14;99831.25;4989386;28;20387;-68
2022/04/22 00:56:13;;;;;;;11.93;8.15;;;;;;;8.07;72.51;99826.34;4988914;28;19963;-68
2022/04/22 00:59:18;;;;;;;12.48;8.98;;;;;;;8.10;71.88;99821.84;4988446;28;20670;-68
2022/04/22 01:02:23;;;;;;;12.48;9.00;;;;;;;7.85;72.86;99813.63;4988873;28;20120;-68
2022/04/22 01:12:11;;;;;;;17.15;10.80;;;;;;;7.71;73.11;99813.50;5021136;28;20056;-68
2022/04/22 01:15:15;;;;;;;;;;;;;;;7.68;72.82;99810.13;5015270;28;20071;-67
2022/04/22 01:18:18;;;;;;;;;;;;;;;7.80;72.08;99813.88;5008477;28;19925;-68
2022/04/22 01:21:22;;;;;;;12.50;9.40;;;;;;;7.76;72.94;99809.75;5007541;28;19975;-67
2022/04/22 01:24:26;;;;;;;;;;;;;;;7.65;73.41;99802.47;5008843;28;20108;-68
2022/04/22 01:27:29;;;;;;;;;;;;;;;7.60;73.63;99801.91;5008476;28;20300;-68
2022/04/22 01:30:32;;;;;;;13.73;9.27;;;;;;;7.69;72.77;99793.63;5008145;28;19987;-68
2022/04/22 01:33:36;;;;;;;;;;;;;;;7.64;73.31;99806.00;5009045;28;20103;-68
2022/04/22 01:36:40;;;;;;;12.13;9.55;;;;;;;7.56;73.77;99795.16;5007568;28;19944;-68
2022/04/22 01:39:43;;;;;;;12.70;10.43;;;;;;;7.56;74.12;99789.97;5008158;28;20049;-68
2022/04/22 01:42:46;;;;;;;;;;;;;;;7.54;73.94;99790.97;5007787;28;20049;-68
2022/04/22 01:45:52;;;;;;;13.65;9.82;;;;;;;7.53;74.00;99787.53;5008707;28;20013;-68
2022/04/22 01:48:57;;;;;;;13.00;10.48;;;;;;;7.46;74.20;99786.13;5008420;28;20080;-67
2022/04/22 01:52:01;;;;;;;14.80;10.15;;;;;;;7.43;74.12;99784.56;5007071;28;20052;-68
2022/04/22 01:55:04;;;;;;;;;;;;;;;7.36;74.80;99790.13;5008398;28;20555;-68
2022/04/22 01:58:07;;;;;;;13.95;10.48;;;;;;;7.35;74.48;99786.69;5007702;28;20320;-68
2022/04/22 02:01:12;;;;;;;16.30;11.10;;;;;;;7.23;74.74;99785.53;5007672;28;20056;-68
2022/04/22 02:04:17;;;;;;;12.68;10.93;;;;;;;7.22;74.90;99791.66;5006584;28;20509;-68
2022/04/22 02:07:20;;;;;;;16.70;11.38;;;;;;;7.32;75.03;99796.41;5007738;28;20057;-68
2022/04/22 02:10:23;;;;;;;14.32;10.38;;;;;;;7.23;74.87;99788.13;5008136;28;20111;-67
2022/04/22 02:13:26;;;;;;;;;;;;;;;7.33;74.69;99792.88;5008137;28;20108;-68
2022/04/22 02:16:29;;;;;;;15.63;10.88;;;;;;;7.22;75.06;99778.66;5006493;28;19925;-67
2022/04/22 02:19:33;;;;;;;;;;;;;;;7.23;75.08;99780.34;5027317;28;20052;-67
2022/04/22 02:22:36;;;;;;;13.63;11.00;;;;;;;7.25;74.85;99776.84;5030010;28;19924;-67
2022/04/22 02:25:40;;;;;;;16.55;12.65;;;;;;;7.17;74.89;99777.22;5030721;28;20051;-67
2022/04/22 02:28:43;;;;;;;14.82;11.65;;;;;;;7.23;74.99;99772.53;5016869;28;20099;-68
2022/04/22 02:31:46;;;;;;;15.05;10.98;;;;;;;7.16;75.24;99776.38;5030940;28;20044;-68
2022/04/22 02:34:50;;;;;;;13.85;10.48;;;;;;;7.25;75.11;99758.63;5030232;28;20055;-68
2022/04/22 02:37:53;;;;;;;14.52;11.55;;;;;;;7.25;74.89;99761.25;5031350;28;20040;-68
2022/04/22 02:47:42;;;;;;;12.75;10.02;;;;;;;7.41;74.42;99739.56;5030308;28;20110;-68
2022/04/22 02:50:45;;;;;;;11.48;10.20;;;;;;;7.22;74.67;99739.66;5029902;28;20056;-68
2022/04/22 02:53:49;;;;;;;13.40;10.02;;;;;;;7.48;73.67;99744.47;5030459;28;20467;-68
2022/04/22 02:56:53;;;;;;;14.30;11.70;;;;;;;7.13;74.41;99753.13;5025104;28;20052;-68
2022/04/22 02:59:56;;;;;;;13.07;9.98;;;;;;;6.96;75.58;99743.59;5010860;28;20585;-67
2022/04/22 03:02:59;;;;;;;;;;;;;;;6.83;75.44;99742.50;5011140;28;20057;-67
2022/04/22 03:06:03;;;;;;;15.07;10.25;;;;;;;6.99;74.94;99742.59;5009499;28;19925;-67
2022/04/22 03:09:07;;;;;;;14.40;10.90;;;;;;;6.87;75.13;99743.19;5010724;28;20228;-67
2022/04/22 03:12:13;;;;;;;14.52;11.77;;;;;;;6.75;75.58;99747.22;5009723;28;20104;-67
2022/04/22 03:15:16;;;;;;;14.75;12.57;;;;;;;6.79;75.35;99737.53;5010608;28;20516;-68
2022/04/22 03:18:20;;;;;;;15.95;11.25;;;;;;;6.86;75.16;99737.16;5013101;28;20057;-68
2022/04/22 03:21:24;;;;;;;;;;;;;;;6.93;75.20;99729.91;5010807;28;20049;-68
2022/04/22 03:24:27;;;;;;;14.90;10.18;;;;;;;7.02;74.63;99721.66;5010377;28;19928;-67
2022/04/22 03:27:32;;;;;;;12.57;10.02;;;;;;;7.25;73.80;99722.25;5009603;28;20048;-67
2022/04/22 03:30:37;;;;;;;13.38;11.10;;;;;;;7.00;74.64;99720.88;5010092;28;20124;-67
2022/04/22 03:33:41;;;;;;;15.48;11.15;;;;;;;6.97;75.02;99727.06;5008738;28;20056;-67
2022/04/22 03:36:44;;;;;;;15.50;11.98;;;;;;;6.99;74.90;99730.44;5010140;28;20111;-67
2022/04/22 03:39:48;;;;;;;;;;;;;;;6.90;75.14;99712.69;5010025;28;20564;-67
2022/04/22 03:42:52;;;;;;;17.60;12.57;;;;;;;6.86;74.95;99715.50;5008555;28;19928;-68
2022/04/22 03:45:56;;;;;;;14.57;11.20;;;;;;;6.94;74.50;99708.19;5009982;28;20104;-68
2022/04/22 03:49:00;;;;;;;;;;;;;;;6.84;75.04;99713.00;5009636;28;20707;-68
2022/04/22 03:52:04;;;;;;;14.90;12.10;;;;;;;6.74;75.11;99711.78;5009413;28;20407;-67
2022/04/22 03:55:09;;;;;;;18.42;12.55;;;;;;;6.63;75.82;99712.28;5009501;28;20552;-67
2022/04/22 03:58:18;;;;;;;16.92;12.30;;;;;;;6.56;76.04;99707.47;5009680;28;20057;-67
2022/04/22 04:01:22;;;;;;;14.63;11.55;;;;;;;6.55;75.48;99703.22;5009419;28;20485;-67
2022/04/22 04:04:25;;;;;;;;;;;;;;;6.43;75.88;99704.66;5008915;28;20045;-67
2022/04/22 04:07:29;;;;;;;15.35;11.85;;;;;;;6.26;76.06;99695.91;5009018;28;19920;-67
2022/04/22 04:17:24;;;;;;;15.32;11.70;;;;;;;6.43;75.32;99700.28;5006254;28;20052;-67
2022/04/22 04:23:50;;;;;;;19.15;12.98;;;;;;;6.33;75.13;99701.66;4999801;28;20056;-68
2022/04/22 04:26:53;;;;;;;15.55;12.02;;;;;;;6.19;75.68;99704.91;5007274;28;20044;-68
2022/04/22 04:29:57;;;;;;;;;;;;;;;6.05;76.34;99699.50;4997271;28;20412;-67
2022/04/22 04:33:07;;;;;;;15.73;12.00;;;;;;;6.09;76.51;99714.03;5007882;28;20280;-68
2022/04/22 04:36:12;;;;;;;15.48;11.73;;;;;;;6.09;76.26;99713.19;5009002;28;20060;-68
2022/04/22 04:39:16;;;;;;;17.88;13.70;;;;;;;6.02;76.28;99710.88;5008817;28;20111;-68
2022/04/22 04:42:19;;;;;;;;;;;;;;;5.97;76.81;99706.84;5017018;28;20136;-68
2022/04/22 04:45:24;;;;;;;18.77;13.57;;;;;;;6.23;75.59;99705.59;5002739;28;19921;-68
2022/04/22 04:48:28;;;;;;;16.58;12.93;;;;;;;6.19;76.12;99698.84;5007877;28;20052;-68
2022/04/22 04:51:31;;;;;;;15.25;11.98;;;;;;;6.28;75.46;99696.66;5008990;28;20111;-67
2022/04/22 04:54:35;;;;;;;17.88;12.85;;;;;;;6.39;75.22;99693.56;5008962;28;20048;-68
2022/04/22 04:57:38;;;;;;;;;;;;;;;6.27;75.76;99695.00;5007945;28;20045;-68
2022/04/22 05:00:45;;;;;;;16.33;12.70;;;;;;;6.41;75.93;99683.09;5007682;28;20380;-68
2022/04/22 05:03:48;;;;;;;17.48;13.65;;;;;;;6.53;75.55;99693.72;4996485;28;20053;-68
2022/04/22 05:06:53;;;;;;;18.45;13.30;;;;;;;6.58;75.54;99688.31;5008445;28;20041;-68
2022/04/22 05:09:56;;;;;;;15.98;11.93;;;;;;;6.54;76.11;99692.00;5008699;28;20088;-68
2022/04/22 05:13:00;;;;;;;15.48;12.63;;;;;;;6.58;75.71;99693.50;5010660;28;20636;-67
2022/04/22 05:16:07;;;;;;;15.90;12.95;;;;;;;6.50;75.93;99698.22;5011548;28;20485;-67
2022/04/22 05:19:14;;;;;;;16.92;12.90;;;;;;;6.36;76.77;99685.94;4992591;28;20126;-67
2022/04/22 05:22:17;;;;;;;18.13;14.07;;;;;;;6.46;76.55;99696.72;4992782;28;20458;-67
2022/04/22 05:25:23;;;;;;;16.15;13.18;;;;;;;6.41;76.53;99691.72;4992633;28;20049;-68
2022/04/22 05:28:26;;;;;;;16.05;12.80;;;;;;;6.50;76.78;99698.22;4992618;28;20126;-68
2022/04/22 05:34:51;;;;;;;15.43;11.75;;;;;;;6.73;75.82;99691.91;4992700;28;19984;-68
2022/04/22 05:38:01;;;;;;;17.00;12.63;;;;;;;6.75;76.27;99684.88;4992789;28;20051;-68
2022/04/22 05:41:05;;;;;;;15.90;12.15;;;;;;;6.80;75.77;99679.47;4992738;28;20429;-68
2022/04/22 05:44:08;;;;;;;16.98;12.65;;;;;;;6.68;76.46;99686.09;4992778;28;20136;-68
2022/04/22 05:47:13;;;;;;;17.83;12.00;;;;;;;6.76;76.29;99678.75;5002219;28;20041;-69
2022/04/22 05:50:18;;;;;;;17.00;12.75;;;;;;;6.74;76.53;99681.44;5007448;28;20092;-68
2022/04/22 05:53:22;;;;;;;18.20;13.57;;;;;;;6.73;77.10;99674.59;5009988;28;20037;-68
2022/04/22 05:56:25;;;;;;;16.13;12.73;;;;;;;6.96;76.27;99669.97;5011505;28;20120;-68
2022/04/22 05:59:28;;;;;;;;;;;;;;;7.20;75.09;99667.84;5015165;28;20052;-68
2022/04/22 06:02:31;;;;;;;18.27;14.00;;;;;;;7.01;75.72;99662.78;5015862;28;19970;-68
2022/04/22 06:05:35;;;;;;;14.65;11.90;;;;;;;7.13;75.70;99669.94;5015953;28;20049;-68
2022/04/22 06:12:00;;;;;;;16.42;13.57;;;;;;;7.30;76.45;99669.06;5015397;28;20052;-68
2022/04/22 06:15:06;;;;;;;17.13;14.38;;;;;;;7.33;77.14;99665.47;5015729;28;20125;-68
2022/04/22 06:18:10;;;;;;;20.15;15.20;;;;;;;7.34;76.74;99659.31;4996347;28;20053;-68
2022/04/22 06:21:15;;;;;;;;;;;;;;;7.47;76.25;99662.97;4996448;28;20057;-68
2022/04/22 06:24:18;;;;;;;16.88;13.75;;;;;;;7.51;75.90;99661.88;4995963;28;20383;-68
2022/04/22 06:27:43;;;;;;;19.10;15.15;;;;;;;7.19;77.31;99656.63;4996021;28;20116;-68
2022/04/22 06:30:48;;;;;;;19.27;16.05;;;;;;;7.51;77.27;99651.47;4995933;28;20049;-68
2022/04/22 06:33:52;;;;;;;21.50;16.50;;;;;;;7.94;75.50;99649.13;4996081;28;20512;-68
2022/04/22 06:36:58;;;;;;;23.58;17.77;;;;;;;8.23;74.19;99636.25;4995566;28;20065;-68
2022/04/22 06:46:48;;;;;;;17.25;14.95;;;;;;;8.77;72.84;99628.81;5012928;28;20107;-68
2022/04/22 06:49:51;;;;;;;;;;;;;;;8.89;73.15;99624.63;4990538;28;20057;-68
2022/04/22 06:52:55;;;;;;;;;;;;;;;9.00;73.38;99620.47;4997302;28;19924;-68
2022/04/22 06:56:01;;;;;;;14.95;13.35;;;;;;;9.09;74.03;99619.06;5009998;28;19920;-68
2022/04/22 06:59:05;;;;;;;18.05;15.32;;;;;;;9.34;72.99;99615.78;5014818;28;20057;-68
2022/04/22 07:02:08;;;;;;;;;;;;;;;9.51;72.15;99620.81;5002712;28;20406;-68
2022/04/22 07:05:12;;;;;;;18.88;14.77;;;;;;;9.59;71.73;99609.91;4995143;28;20020;-68
2022/04/22 07:08:17;;;;;;;15.65;13.35;;;;;;;9.71;71.59;99611.72;4993426;28;20049;-68
2022/04/22 07:11:24;;;;;;;15.45;13.90;;;;;;;9.81;71.47;99605.94;4982015;28;20122;-68
2022/04/22 07:14:29;;;;;;;17.52;14.50;;;;;;;9.95;70.33;99604.09;4994987;28;20048;-68
2022/04/22 07:17:33;;;;;;;16.73;13.45;;;;;;;10.10;69.82;99597.06;5014169;28;20052;-68
2022/04/22 07:20:37;;;;;;;14.15;12.50;;;;;;;10.25;68.83;99601.28;5014331;28;20500;-68
2022/04/22 07:23:40;;;;;;;14.43;12.90;;;;;;;10.29;68.77;99601.94;5014158;28;20056;-68
2022/04/22 07:26:44;;;;;;;14.27;12.77;;;;;;;10.39;68.48;99595.16;5014483;28;20048;-68
2022/04/22 07:29:48;;;;;;;14.10;11.98;;;;;;;10.57;68.23;99595.72;5014290;28;20129;-68
2022/04/22 07:32:52;;;;;;;14.13;11.95;;;;;;;10.72;67.33;99599.09;5013660;28;20457;-68
2022/04/22 07:35:55;;;;;;;12.35;10.63;;;;;;;10.90;65.67;99587.38;5014117;28;20049;-68
2022/04/22 07:39:00;;;;;;;12.13;10.65;;;;;;;11.07;64.89;99598.44;4998676;28;20096;-68
2022/04/22 07:42:03;;;;;;;11.82;9.65;;;;;;;11.25;64.66;99596.34;4994533;28;20041;-68
2022/04/22 07:48:31;;;;;;;10.55;9.45;;;;;;;11.44;63.99;99596.72;5013773;28;20052;-68
2022/04/22 07:51:34;;;;;;;;;;;;;;;11.70;63.05;99588.78;5014407;28;20064;-68
2022/04/22 07:54:37;;;;;;;11.30;10.10;;;;;;;11.86;62.07;99595.47;5014627;28;20031;-68
2022/04/22 07:57:41;;;;;;;11.40;9.43;;;;;;;11.84;61.08;99599.13;5030688;28;20091;-68
2022/04/22 08:00:46;;;;;;;11.57;10.38;;;;;;;11.63;61.15;99596.25;5033488;28;20045;-68
2022/04/22 08:03:50;;;;;;;11.50;10.32;;;;;;;11.78;60.92;99595.16;5033856;28;20045;-68
2022/04/22 08:06:54;;;;;;;12.60;9.57;;;;;;;11.83;61.24;99592.19;5034546;28;20048;-68
2022/04/22 08:09:57;;;;;;;;;;;;;;;11.89;60.03;99590.97;5041030;28;20044;-67
2022/04/22 08:13:01;;;;;;;10.77;9.55;;;;;;;12.00;60.21;99588.41;5036300;28;19939;-68
2022/04/22 08:16:06;;;;;;;11.57;9.48;;;;;;;11.79;59.20;99586.34;5031158;28;20091;-67
2022/04/22 08:19:09;;;;;;;10.25;8.90;;;;;;;11.87;59.63;99583.22;4993722;28;20041;-67
2022/04/22 08:22:13;;;;;;;10.95;9.70;;;;;;;11.95;60.30;99587.91;4993623;28;20101;-68
2022/04/22 08:25:17;;;;;;;10.23;9.23;;;;;;;12.03;59.94;99583.78;4993821;28;20057;-68
2022/04/22 08:28:20;;;;;;;13.73;9.02;;;;;;;12.20;59.70;99584.31;5001501;28;20045;-68
2022/04/22 08:31:27;;;;;;;;;;;;;;;12.20;58.84;99579.91;5003175;28;20577;-68
2022/04/22 08:34:32;;;;;;;9.73;8.73;;;;;;;12.25;58.85;99577.78;4996359;28;20228;-67
2022/04/22 08:37:37;;;;;;;;;;;;;;;12.30;57.67;99578.25;4994851;28;20056;-68
2022/04/22 08:40:42;;;;;;;10.57;8.73;;;;;;;12.23;57.74;99586.72;5013323;28;20068;-68
2022/04/22 08:43:46;;;;;;;13.35;8.13;;;;;;;12.62;58.72;99572.38;5031123;28;20053;-70
2022/04/22 08:50:16;;;;;;;12.32;9.00;;;;;;;13.07;56.59;99569.81;5016080;28;20500;-72
2022/04/22 08:53:23;;;;;;;9.80;8.48;;;;;;;13.11;56.26;99555.47;5015834;28;20486;-69
2022/04/22 08:56:27;;;;;;;9.15;8.13;;;;;;;13.16;56.08;99558.59;5013202;28;20045;-70
2022/04/22 08:59:30;;;;;;;9.77;8.07;;;;;;;13.29;55.83;99557.66;4993438;28;20073;-77
2022/04/22 09:02:35;;;;;;;10.20;8.60;;;;;;;13.16;54.82;99547.25;4992985;28;20461;-68
2022/04/22 09:05:39;;;;;;;8.48;7.40;;;;;;;13.18;55.21;99546.19;4992060;28;20081;-68
2022/04/22 09:08:43;;;;;;;9.50;7.60;;;;;;;13.24;55.08;99543.13;4979988;28;20041;-68
2022/04/22 09:11:47;;;;;;;9.20;7.57;;;;;;;13.24;55.09;99540.50;4997697;28;20149;-69
2022/04/22 09:14:53;;;;;;;12.43;7.88;;;;;;;13.26;54.04;99533.31;5007887;28;20085;-69
2022/04/22 09:18:09;;;;;;;13.27;8.35;;;;;;;13.42;53.60;99529.47;5007591;28;20104;-69
2022/04/22 09:21:18;;;;;;;12.05;8.02;;;;;;;13.60;52.80;99528.00;4998102;28;20057;-68
2022/04/22 09:24:21;;;;;;;10.57;8.80;;;;;;;13.55;52.83;99518.81;5012102;28;20045;-68
2022/04/22 09:27:32;;;;;;;9.52;7.57;;;;;;;13.47;53.75;99520.28;5014692;28;20428;-67
2022/04/22 09:30:35;;;;;;;9.02;7.80;;;;;;;13.36;53.66;99511.56;5014135;28;20052;-68
2022/04/22 09:33:47;;;;;;;9.20;8.15;;;;;;;13.29;53.66;99516.50;5018340;28;20036;-68
2022/04/22 09:43:45;;;;;;;11.23;9.15;;;;;;;13.37;53.47;99503.59;5012638;28;20123;-69
2022/04/22 09:46:50;;;;;;;8.02;7.22;;;;;;;13.37;53.04;99521.13;5012327;28;20068;-69
2022/04/22 09:49:54;;;;;;;10.60;9.30;;;;;;;13.30;52.70;99506.81;5013367;28;20108;-69
2022/04/22 09:53:03;;;;;;;12.82;9.23;;;;;;;13.53;53.20;99500.56;5013512;28;20036;-69
2022/04/22 09:56:09;;;;;;;9.15;7.32;;;;;;;13.67;52.70;99494.19;5023103;28;20508;-69
2022/04/22 09:59:23;;;;;;;7.85;7.05;;;;;;;13.63;52.25;99490.97;5012409;28;20137;-69
2022/04/22 10:02:29;;;;;;;9.25;7.00;;;;;;;13.64;52.21;99489.19;5010695;28;20405;-68
2022/04/22 10:05:32;;;;;;;9.13;8.02;;;;;;;13.87;52.20;99479.41;5014907;28;20133;-68
2022/04/22 10:08:36;;;;;;;9.65;7.88;;;;;;;13.95;51.49;99464.69;5010327;28;20061;-68
2022/04/22 10:11:42;;;;;;;9.82;7.65;;;;;;;14.16;51.02;99454.16;5002870;28;20100;-70
2022/04/22 10:14:47;;;;;;;9.90;7.13;;;;;;;14.26;51.13;99459.47;4995969;28;20084;-68
2022/04/22 10:17:54;;;;;;;8.95;6.80;;;;;;;14.33;50.59;99451.91;4992779;28;20113;-69
2022/04/22 10:20:59;;;;;;;9.70;7.28;;;;;;;14.43;49.49;99447.53;4991657;28;20056;-69
2022/04/22 10:24:07;;;;;;;9.82;8.05;;;;;;;14.40;49.20;99451.25;5150171;23;20566;-69
2022/04/22 10:27:12;;;;;;;8.80;7.85;;;;;;;14.47;49.24;99456.00;5034498;28;20088;-69
2022/04/22 10:30:17;;;;;;;8.70;6.75;;;;;;;14.62;49.70;99444.19;5035619;28;20044;-69
2022/04/22 10:33:25;;;;;;;9.88;7.72;;;;;;;14.67;49.96;99441.16;5035818;28;20047;-71
2022/04/22 10:36:32;;;;;;;9.20;7.95;;;;;;;14.62;49.26;99434.50;5034876;28;20095;-70
2022/04/22 10:39:37;;;;;;;10.85;7.57;;;;;;;14.68;49.89;99432.28;5015750;28;20040;-70
2022/04/22 10:42:43;;;;;;;9.90;8.23;;;;;;;14.64;49.15;99426.47;5015364;28;20548;-69
2022/04/22 10:49:15;;;;;;;9.68;5.95;;;;;;;15.22;48.93;99416.09;5034100;28;20057;-70
2022/04/22 10:52:19;;;;;;;10.00;7.70;;;;;;;15.15;47.76;99422.03;5033964;28;20061;-71
2022/04/22 10:55:23;;;;;;;11.57;7.20;;;;;;;15.14;47.78;99428.28;5037100;28;20064;-69
2022/04/22 10:58:29;;;;;;;8.10;6.53;;;;;;;15.17;47.94;99423.56;5033286;28;20542;-70
2022/04/22 11:01:39;;;;;;;9.38;6.53;;;;;;;15.26;47.10;99421.91;5033388;28;20099;-72
2022/04/22 11:04:53;;;;;;;8.20;5.88;;;;;;;15.25;47.15;99414.97;5038136;28;20179;-70
2022/04/22 11:08:00;;;;;;;7.78;6.07;;;;;;;15.44;47.77;99403.59;5035501;28;20055;-70
2022/04/22 11:11:05;;;;;;;9.02;6.57;;;;;;;15.67;46.55;99398.94;5036826;28;20566;-69
2022/04/22 11:14:20;;;;;;;8.07;7.15;;;;;;;15.85;46.15;99386.69;5036214;28;20454;-69
2022/04/22 11:17:44;;;;;;;7.30;6.60;;;;;;;15.96;46.29;99391.00;5030899;28;20099;-70
2022/04/22 11:20:52;;;;;;;11.80;7.75;;;;;;;16.00;45.86;99402.91;5012367;28;20076;-69
2022/04/22 11:23:56;;;;;;;11.95;7.22;;;;;;;15.93;45.87;99396.53;5020265;28;20199;-69
2022/04/22 11:27:05;;;;;;;8.75;6.43;;;;;;;15.71;46.00;99395.88;5033211;28;20048;-68
2022/04/22 11:30:09;;;;;;;9.02;6.28;;;;;;;15.88;46.66;99383.75;5033575;28;20094;-69
2022/04/22 11:33:29;;;;;;;10.02;6.32;;;;;;;16.16;45.88;99384.69;5034141;28;20036;-69
2022/04/22 11:36:44;;;;;;;8.45;6.20;;;;;;;16.04;45.23;99375.28;5034084;28;20048;-69
2022/04/22 11:39:49;;;;;;;7.43;5.90;;;;;;;16.22;45.99;99378.00;5037105;28;20048;-70
2022/04/22 11:42:54;;;;;;;8.85;6.63;;;;;;;16.29;44.96;99371.16;5032107;28;20103;-69
2022/04/22 11:46:03;;;;;;;10.48;6.40;;;;;;;16.27;44.60;99359.91;5048429;28;20209;-69
2022/04/22 11:49:13;;;;;;;7.38;6.60;;;;;;;16.26;44.49;99363.53;5057011;28;20071;-70
2022/04/22 11:52:20;;;;;;;6.82;5.38;;;;;;;16.21;44.83;99364.00;5056407;28;20043;-70
2022/04/22 11:55:24;;;;;;;9.85;7.50;;;;;;;16.52;44.40;99359.25;5056776;28;20044;-69
2022/04/22 11:58:29;;;;;;;11.25;8.55;;;;;;;16.35;43.17;99359.22;5056878;28;20060;-69
2022/04/22 12:08:19;;;;;;;7.80;6.25;;;;;;;16.95;42.86;99341.94;5053665;28;20055;-69
2022/04/22 12:11:27;;;;;;;10.00;7.07;;;;;;;17.13;41.95;99347.25;5053779;28;20051;-70
2022/04/22 12:14:31;;;;;;;12.85;6.18;;;;;;;17.38;41.97;99340.34;5053093;28;20129;-71
2022/04/22 12:17:34;;;;;;;8.25;7.18;;;;;;;17.54;41.64;99352.03;5053603;28;20051;-69
2022/04/22 12:20:40;;;;;;;8.50;7.70;;;;;;;17.23;40.59;99349.81;5053812;28;20048;-70
2022/04/22 12:23:47;;;;;;;8.23;7.07;;;;;;;17.41;41.02;99345.31;5053995;28;20091;-68
2022/04/22 12:26:52;;;;;;;10.10;7.05;;;;;;;17.74;40.62;99340.31;5052801;28;20471;-69
2022/04/22 12:30:06;;;;;;;8.43;7.53;;;;;;;17.44;41.04;99337.09;5048632;28;20028;-71
2022/04/22 12:33:19;;;;;;;7.82;6.80;;;;;;;17.51;41.58;99339.94;5074268;28;20056;-69
2022/04/22 12:36:22;;;;;;;7.43;6.72;;;;;;;17.55;40.41;99329.91;5061321;28;20051;-69
2022/04/22 12:39:36;;;;;;;7.53;5.65;;;;;;;18.16;40.38;99321.06;5056107;28;20076;-69
2022/04/22 12:42:44;;;;;;;7.68;6.68;;;;;;;18.68;39.01;99312.16;5041613;28;20083;-69
2022/04/22 12:52:46;;;;;;;8.00;7.20;;;;;;;18.57;38.41;99306.16;5040671;28;20047;-69
2022/04/22 12:56:01;;;;;;;7.80;6.22;;;;;;;19.27;38.00;99308.44;5053253;28;20090;-69
2022/04/22 12:59:06;;;;;;;9.95;7.65;;;;;;;20.08;36.58;99296.06;5054638;28;20051;-71
2022/04/22 13:02:11;;;;;;;9.68;7.50;;;;;;;19.18;37.29;99298.03;5050443;28;20090;-69
2022/04/22 13:05:20;;;;;;;8.32;7.38;;;;;;;19.46;37.57;99299.34;5053080;28;20519;-69
2022/04/22 13:08:23;;;;;;;9.45;7.25;;;;;;;19.62;36.72;99305.59;5053337;28;20052;-72
2022/04/22 13:11:26;;;;;;;9.90;7.60;;;;;;;20.12;36.85;99297.38;5052412;28;20052;-70
2022/04/22 13:14:29;;;;;;;11.38;7.45;;;;;;;20.40;35.53;99296.94;5052086;28;20051;-70
2022/04/22 13:17:41;;;;;;;9.00;6.85;;;;;;;20.81;35.75;99294.09;5052747;28;20510;-70
2022/04/22 13:20:44;;;;;;;10.10;7.65;;;;;;;20.63;35.65;99289.88;5053372;28;20132;-70
2022/04/22 13:23:50;;;;;;;12.02;8.05;;;;;;;20.92;35.32;99301.63;5052721;28;20051;-69
2022/04/22 13:26:54;;;;;;;10.75;7.10;;;;;;;21.73;34.49;99294.00;5039344;28;20048;-70
2022/04/22 13:29:58;;;;;;;10.10;8.68;;;;;;;20.96;33.85;99294.97;5050095;28;20044;-70
2022/04/22 13:33:02;;;;;;;10.32;7.63;;;;;;;21.18;33.61;99285.31;5054135;28;20107;-72
2022/04/22 13:36:09;;;;;;;7.40;6.55;;;;;;;20.25;36.03;99285.38;5053018;28;20081;-70
2022/04/22 13:39:13;;;;;;;8.38;7.57;;;;;;;19.75;36.09;99274.13;5035187;28;20175;-70
2022/04/22 13:42:18;;;;;;;9.20;7.10;;;;;;;18.68;37.92;99286.50;5032428;28;20080;-70
2022/04/22 13:52:22;;;;;;;6.95;6.25;;;;;;;23.96;28.25;99267.41;5052356;28;20556;-69
2022/04/22 13:55:26;;;;;;;6.78;5.47;;;;;;;24.58;27.90;99264.63;5052511;28;20051;-69
2022/04/22 13:58:32;;;;;;;8.63;6.78;;;;;;;21.23;32.47;99284.81;5053032;28;20090;-69
2022/04/22 14:01:36;;;;;;;8.48;6.38;;;;;;;19.66;34.87;99286.56;5050546;28;20037;-69
2022/04/22 14:04:41;;;;;;;7.90;7.20;;;;;;;24.20;28.26;99276.78;5049229;28;20099;-69
2022/04/22 14:07:44;;;;;;;7.22;5.40;;;;;;;28.55;22.28;99248.53;5051024;28;20052;-69
2022/04/22 14:10:50;;;;;;;6.82;5.53;;;;;;;30.56;19.90;99250.16;5053440;28;20051;-70
2022/04/22 14:13:56;;;;;;;9.15;5.15;;;;;;;28.36;21.26;99247.72;5048628;28;20567;-69
2022/04/22 14:16:59;;;;;;;7.82;5.50;;;;;;;24.18;27.76;99266.28;5050337;28;20106;-69
2022/04/22 14:20:06;;;;;;;6.13;5.13;;;;;;;29.60;21.02;99252.47;5057727;28;20047;-70
2022/04/22 14:23:10;;;;;;;5.53;4.90;;;;;;;29.99;20.42;99258.19;5054680;28;20109;-70
2022/04/22 14:26:14;;;;;;;5.75;4.30;;;;;;;28.05;22.36;99257.66;5055526;28;20507;-69
2022/04/22 14:29:18;;;;;;;15.32;5.30;;;;;;;23.70;28.23;99271.59;5055300;28;20079;-70
2022/04/22 14:32:22;;;;;;;6.32;5.63;;;;;;;22.91;29.59;99267.22;5055268;28;20048;-70
2022/04/22 14:35:25;;;;;;;6.97;5.43;;;;;;;22.13;31.24;99278.59;5054562;28;20056;-70
2022/04/22 14:38:28;;;;;;;7.38;4.75;;;;;;;23.42;29.17;99263.56;5054117;28;20095;-69
2022/04/22 14:41:31;;;;;;;9.32;5.30;;;;;;;23.18;29.27;99267.47;5054979;28;20079;-70
2022/04/22 14:44:35;;;;;;;8.52;4.35;;;;;;;26.39;25.38;99253.56;5052931;28;20436;-70
2022/04/22 14:47:38;;;;;;;5.50;4.63;;;;;;;24.19;28.67;99259.13;5054356;28;20479;-70
2022/04/22 14:50:41;;;;;;;7.85;4.75;;;;;;;27.18;24.50;99245.25;5054590;28;20094;-70
2022/04/22 14:53:45;;;;;;;6.00;4.13;;;;;;;23.86;30.37;99257.09;5053999;28;20084;-71
2022/04/22 14:56:48;;;;;;;6.00;4.85;;;;;;;22.59;32.78;99254.38;5055098;28;20056;-71
2022/04/22 14:59:53;;;;;;;9.00;4.78;;;;;;;23.46;31.23;99256.00;5054217;28;20407;-71
2022/04/22 15:02:56;;;;;;;7.15;4.68;;;;;;;22.27;32.29;99253.78;5053660;28;20040;-70
2022/04/22 15:06:00;;;;;;;12.65;5.35;;;;;;;20.70;34.81;99273.22;5052290;28;20051;-71
2022/04/22 15:09:05;;;;;;;12.40;6.10;;;;;;;20.35;35.60;99262.94;5054215;28;20044;-71
2022/04/22 15:12:08;;;;;;;6.35;5.30;;;;;;;20.37;34.54;99258.28;5054401;28;20035;-71
2022/04/22 15:15:13;;;;;;;10.23;4.72;;;;;;;22.13;31.85;99250.13;5033966;28;20408;-71
2022/04/22 15:25:01;;;;;;;5.40;3.85;;;;;;;28.82;22.35;99238.22;5041596;28;20129;-71
2022/04/22 15:28:06;;;;;;;8.60;4.72;;;;;;;29.09;22.44;99237.84;5042910;28;20135;-70
2022/04/22 15:31:19;;;;;;;5.00;4.50;;;;;;;29.18;21.77;99245.34;5023878;28;20061;-72
2022/04/22 15:34:23;;;;;;;4.72;4.15;;;;;;;26.97;24.00;99244.59;5039850;28;20048;-70
2022/04/22 15:37:26;;;;;;;4.95;4.45;;;;;;;24.98;26.02;99253.16;5035881;28;20051;-70
2022/04/22 15:40:29;;;;;;;10.65;4.63;;;;;;;24.58;26.96;99253.13;5036236;28;20508;-70
2022/04/22 15:43:36;;;;;;;10.27;4.78;;;;;;;22.48;29.90;99256.50;5023590;28;20413;-69
2022/04/22 15:46:40;;;;;;;9.10;4.60;;;;;;;22.60;30.09;99256.03;5034796;28;20054;-70
2022/04/22 15:49:43;;;;;;;5.22;4.28;;;;;;;25.77;25.04;99260.34;5022521;28;20099;-70
2022/04/22 15:52:48;;;;;;;7.80;4.53;;;;;;;23.19;29.53;99255.78;5033542;28;20048;-70
2022/04/22 15:55:51;;;;;;;6.15;4.78;;;;;;;22.14;31.23;99257.09;5034464;28;20143;-69
2022/04/22 15:58:55;;;;;;;10.73;4.88;;;;;;;20.58;33.70;99265.69;5033582;28;20052;-69